createdAt,value
2022-10-05T00:00:23.091Z,16.30
2022-10-05T00:02:53.459Z,16.42
2022-10-05T00:05:21.940Z,16.45
2022-10-05T00:07:48.853Z,16.08
2022-10-05T00:10:17.944Z,16.24
2022-10-05T00:12:46.324Z,15.83
2022-10-05T00:15:17.861Z,16.31
2022-10-05T00:17:44.776Z,16.26
2022-10-05T00:20:24.439Z,16.11
2022-10-05T00:22:56.359Z,16.38
2022-10-05T00:25:23.599Z,16.30
2022-10-05T00:27:58.201Z,16.18
2022-10-05T00:30:27.341Z,16.37
2022-10-05T00:32:59.344Z,16.27
2022-10-05T00:35:30.880Z,16.06
2022-10-05T00:37:57.755Z,16.25
2022-10-05T00:40:58.288Z,16.34
2022-10-05T00:43:31.070Z,16.25
2022-10-05T00:46:08.970Z,16.15
2022-10-05T00:49:06.010Z,14.99
2022-10-05T00:51:36.238Z,15.98
2022-10-05T00:54:20.284Z,15.86
2022-10-05T00:57:07.896Z,16.17
2022-10-05T01:00:08.654Z,16.34
2022-10-05T01:03:15.945Z,16.29
2022-10-05T01:06:02.356Z,16.11
2022-10-05T01:08:43.696Z,16.00
2022-10-05T01:11:26.496Z,16.28
2022-10-05T01:14:23.070Z,16.18
2022-10-05T01:17:18.505Z,16.19
2022-10-05T01:20:15.726Z,15.13
2022-10-05T01:22:48.562Z,16.25
2022-10-05T01:25:31.129Z,16.08
2022-10-05T01:28:24.474Z,16.08
2022-10-05T01:31:41.119Z,16.25
2022-10-05T01:34:19.457Z,16.26
2022-10-05T01:36:59.322Z,16.22
2022-10-05T01:39:48.278Z,16.25
2022-10-05T01:43:02.856Z,16.24
2022-10-05T01:45:59.589Z,16.24
2022-10-05T01:48:49.489Z,15.55
2022-10-05T01:52:08.692Z,16.15
2022-10-05T01:54:59.587Z,16.23
2022-10-05T01:57:50.340Z,16.21
2022-10-05T02:00:19.668Z,16.13
2022-10-05T02:02:53.039Z,16.23
2022-10-05T02:05:41.450Z,16.21
2022-10-05T02:08:19.673Z,13.77
2022-10-05T02:11:09.256Z,16.04
2022-10-05T02:13:49.305Z,16.06
2022-10-05T02:16:40.339Z,15.84
2022-10-05T02:19:22.195Z,16.20
2022-10-05T02:21:56.146Z,16.05
2022-10-05T02:24:29.791Z,16.15
2022-10-05T02:26:57.220Z,16.13
2022-10-05T02:29:28.164Z,15.98
2022-10-05T02:32:04.912Z,15.82
2022-10-05T02:34:38.648Z,16.01
2022-10-05T02:37:12.350Z,16.13
2022-10-05T02:39:47.815Z,16.00
2022-10-05T02:42:52.353Z,16.08
2022-10-05T02:45:41.948Z,16.05
2022-10-05T02:48:42.004Z,16.03
2022-10-05T02:51:28.815Z,15.83
2022-10-05T02:54:23.107Z,15.91
2022-10-05T02:57:00.765Z,16.01
2022-10-05T03:00:07.424Z,15.89
2022-10-05T03:02:42.738Z,15.74
2022-10-05T03:05:44.064Z,15.59
2022-10-05T03:08:29.425Z,15.97
2022-10-05T03:11:21.988Z,14.99
2022-10-05T03:14:13.885Z,15.50
2022-10-05T03:16:55.161Z,15.88
2022-10-05T03:19:41.674Z,15.81
2022-10-05T03:22:49.382Z,14.69
2022-10-05T03:26:19.552Z,15.53
2022-10-05T03:28:58.114Z,15.71
2022-10-05T03:31:44.632Z,15.81
2022-10-05T03:34:17.815Z,15.55
2022-10-05T03:36:53.408Z,15.40
2022-10-05T03:39:45.154Z,15.08
2022-10-05T03:42:26.810Z,15.21
2022-10-05T03:45:14.678Z,15.72
2022-10-05T03:48:08.292Z,15.71
2022-10-05T03:51:13.972Z,15.55
2022-10-05T03:54:09.305Z,15.48
2022-10-05T03:56:49.762Z,15.59
2022-10-05T03:59:32.107Z,15.65
2022-10-05T04:02:06.612Z,15.64
2022-10-05T04:04:47.395Z,15.38
2022-10-05T04:07:47.801Z,15.64
2022-10-05T04:10:29.298Z,15.67
2022-10-05T04:13:15.707Z,15.55
2022-10-05T04:16:30.080Z,14.12
2022-10-05T04:19:21.925Z,15.32
2022-10-05T04:21:53.683Z,15.20
2022-10-05T04:24:29.981Z,15.13
2022-10-05T04:27:22.699Z,15.61
2022-10-05T04:30:22.378Z,15.49
2022-10-05T04:32:57.274Z,15.61
2022-10-05T04:35:52.229Z,15.61
2022-10-05T04:38:55.140Z,15.34
2022-10-05T04:42:24.624Z,15.30
2022-10-05T04:44:58.431Z,15.64
2022-10-05T04:48:11.033Z,15.39
2022-10-05T04:51:30.838Z,15.52
2022-10-05T04:54:11.936Z,15.64
2022-10-05T04:56:47.818Z,14.46
2022-10-05T04:59:40.108Z,15.65
2022-10-05T05:02:27.913Z,15.65
2022-10-05T05:05:48.525Z,15.49
2022-10-05T05:09:02.613Z,15.61
2022-10-05T05:12:02.416Z,15.62
2022-10-05T05:14:59.891Z,15.64
2022-10-05T05:17:32.443Z,15.62
2022-10-05T05:20:39.605Z,15.62
2022-10-05T05:23:27.783Z,15.61
2022-10-05T05:26:15.825Z,14.31
2022-10-05T05:29:24.492Z,15.64
2022-10-05T05:32:32.352Z,15.30
2022-10-05T05:35:29.529Z,15.65
2022-10-05T05:38:23.869Z,15.58
2022-10-05T05:41:12.216Z,15.54
2022-10-05T05:44:09.679Z,15.65
2022-10-05T05:47:02.172Z,15.37
2022-10-05T05:49:55.068Z,15.64
2022-10-05T05:52:29.919Z,14.84
2022-10-05T05:55:20.790Z,15.27
2022-10-05T05:57:54.881Z,15.65
2022-10-05T06:00:26.819Z,14.09
2022-10-05T06:03:15.829Z,15.55
2022-10-05T06:05:49.984Z,15.67
2022-10-05T06:08:30.986Z,15.39
2022-10-05T06:11:23.451Z,14.63
2022-10-05T06:13:50.941Z,15.56
2022-10-05T06:16:51.359Z,14.34
2022-10-05T06:19:21.712Z,15.38
2022-10-05T06:22:19.917Z,15.69
2022-10-05T06:25:13.945Z,15.67
2022-10-05T06:28:13.434Z,15.51
2022-10-05T06:31:15.433Z,15.66
2022-10-05T06:33:52.244Z,15.62
2022-10-05T06:36:46.207Z,14.37
2022-10-05T06:39:15.754Z,15.66
2022-10-05T06:42:44.316Z,15.30
2022-10-05T06:46:00.187Z,15.67
2022-10-05T06:48:42.149Z,15.43
2022-10-05T06:51:44.326Z,15.71
2022-10-05T06:54:23.216Z,15.36
2022-10-05T06:57:15.909Z,15.21
2022-10-05T07:00:07.661Z,15.77
2022-10-05T07:03:12.637Z,15.79
2022-10-05T07:06:02.672Z,15.74
2022-10-05T07:08:57.269Z,14.49
2022-10-05T07:11:44.475Z,15.36
2022-10-05T07:14:53.810Z,15.85
2022-10-05T07:18:12.221Z,15.84
2022-10-05T07:21:03.630Z,15.65
2022-10-05T07:23:48.531Z,15.68
2022-10-05T07:26:50.934Z,15.85
2022-10-05T07:29:33.607Z,15.57
2022-10-05T07:32:47.269Z,15.86
2022-10-05T07:36:05.176Z,15.67
2022-10-05T07:39:16.417Z,15.84
2022-10-05T07:42:04.516Z,14.59
2022-10-05T07:44:38.647Z,15.66
2022-10-05T07:47:58.171Z,15.76
2022-10-05T07:50:36.884Z,15.59
2022-10-05T07:53:24.828Z,13.60
2022-10-05T07:56:01.474Z,14.74
2022-10-05T07:58:36.556Z,15.36
2022-10-05T08:01:08.421Z,15.90
2022-10-05T08:04:22.697Z,15.75
2022-10-05T08:07:05.929Z,15.44
2022-10-05T08:09:47.622Z,15.57
2022-10-05T08:12:25.425Z,15.90
2022-10-05T08:14:59.126Z,15.72
2022-10-05T08:18:21.972Z,15.92
2022-10-05T08:20:52.356Z,15.96
2022-10-05T08:23:29.332Z,15.79
2022-10-05T08:26:29.116Z,16.01
2022-10-05T08:29:25.873Z,16.04
2022-10-05T08:31:58.893Z,15.91
2022-10-05T08:34:40.728Z,16.07
2022-10-05T08:37:37.658Z,16.09
2022-10-05T08:40:36.567Z,16.11
2022-10-05T08:43:44.770Z,16.12
2022-10-05T08:46:32.813Z,16.14
2022-10-05T08:49:58.633Z,16.15
2022-10-05T08:52:38.409Z,14.71
2022-10-05T08:55:23.312Z,16.20
2022-10-05T08:58:29.081Z,16.24
2022-10-05T09:01:04.829Z,16.26
2022-10-05T09:04:16.512Z,16.28
2022-10-05T09:07:09.943Z,16.30
2022-10-05T09:10:09.196Z,16.34
2022-10-05T09:12:47.902Z,16.09
2022-10-05T09:15:48.599Z,16.37
2022-10-05T09:18:42.543Z,16.41
2022-10-05T09:21:32.137Z,16.19
2022-10-05T09:24:06.854Z,16.42
2022-10-05T09:26:56.094Z,15.03
2022-10-05T09:30:10.534Z,16.39
2022-10-05T09:33:03.769Z,16.44
2022-10-05T09:36:09.212Z,16.46
2022-10-05T09:38:47.865Z,16.47
2022-10-05T09:41:44.475Z,16.49
2022-10-05T09:44:36.334Z,16.10
2022-10-05T09:47:12.243Z,16.52
2022-10-05T09:50:03.890Z,16.53
2022-10-05T09:52:59.768Z,16.34
2022-10-05T09:55:54.383Z,16.54
2022-10-05T09:58:44.596Z,16.58
2022-10-05T10:01:33.515Z,16.59
2022-10-05T10:04:19.556Z,16.62
2022-10-05T10:07:05.059Z,16.69
2022-10-05T10:09:39.554Z,16.75
2022-10-05T10:12:24.603Z,16.44
2022-10-05T10:15:18.732Z,16.86
2022-10-05T10:18:10.869Z,16.92
2022-10-05T10:20:59.137Z,16.92
2022-10-05T10:23:59.094Z,16.86
2022-10-05T10:27:03.841Z,17.09
2022-10-05T10:29:42.993Z,17.13
2022-10-05T10:32:47.361Z,17.16
2022-10-05T10:35:25.865Z,16.24
2022-10-05T10:37:52.726Z,17.22
2022-10-05T10:40:54.884Z,17.24
2022-10-05T10:43:41.024Z,17.25
2022-10-05T10:46:14.097Z,17.20
2022-10-05T10:48:46.788Z,17.28
2022-10-05T10:51:51.116Z,17.29
2022-10-05T10:54:28.855Z,17.31
2022-10-05T10:57:04.180Z,17.24
2022-10-05T11:00:17.540Z,17.13
2022-10-05T11:03:03.922Z,16.01
2022-10-05T11:05:54.842Z,16.27
2022-10-05T11:08:39.457Z,17.06
2022-10-05T11:11:12.611Z,16.02
2022-10-05T11:14:02.825Z,17.28
2022-10-05T11:16:46.822Z,17.27
2022-10-05T11:19:35.095Z,17.27
2022-10-05T11:22:17.361Z,17.24
2022-10-05T11:24:50.264Z,17.23
2022-10-05T11:27:40.742Z,16.53
2022-10-05T11:30:41.500Z,17.01
2022-10-05T11:33:13.196Z,17.19
2022-10-05T11:36:27.998Z,16.59
2022-10-05T11:39:28.684Z,17.15
2022-10-05T11:42:20.350Z,17.14
2022-10-05T11:45:22.409Z,17.13
2022-10-05T11:48:10.635Z,16.90
2022-10-05T11:50:42.979Z,17.05
2022-10-05T11:53:22.204Z,17.18
2022-10-05T11:55:49.936Z,17.21
2022-10-05T11:58:23.695Z,17.22
2022-10-05T12:00:56.382Z,16.91
2022-10-05T12:03:47.232Z,17.24
2022-10-05T12:06:32.689Z,17.26
2022-10-05T12:09:07.221Z,15.87
2022-10-05T12:12:02.028Z,17.30
2022-10-05T12:14:54.239Z,16.05
2022-10-05T12:17:30.093Z,16.36
2022-10-05T12:19:58.765Z,16.81
2022-10-05T12:22:34.017Z,17.16
2022-10-05T12:25:39.417Z,17.37
2022-10-05T12:28:11.254Z,17.38
2022-10-05T12:30:57.886Z,17.40
2022-10-05T12:33:38.926Z,17.33
2022-10-05T12:36:46.327Z,17.27
2022-10-05T12:39:23.713Z,17.21
2022-10-05T12:42:06.714Z,17.29
2022-10-05T12:44:58.286Z,17.41
2022-10-05T12:47:56.132Z,17.42
2022-10-05T12:50:28.321Z,16.54
2022-10-05T12:53:22.472Z,17.17
2022-10-05T12:55:57.609Z,17.20
2022-10-05T12:58:37.209Z,17.50
2022-10-05T13:01:24.892Z,15.64
2022-10-05T13:04:24.238Z,17.59
2022-10-05T13:07:12.207Z,17.65
2022-10-05T13:10:28.130Z,17.68
2022-10-05T13:13:37.657Z,17.70
2022-10-05T13:16:54.944Z,17.70
2022-10-05T13:19:47.921Z,17.43
2022-10-05T13:22:50.644Z,17.45
2022-10-05T13:25:27.249Z,17.25
2022-10-05T13:28:15.080Z,17.74
2022-10-05T13:30:51.911Z,17.57
2022-10-05T13:33:27.613Z,16.65
2022-10-05T13:36:18.974Z,16.36
2022-10-05T13:39:01.367Z,17.70
2022-10-05T13:42:00.363Z,16.48
2022-10-05T13:44:39.747Z,17.77
2022-10-05T13:47:19.321Z,17.79
2022-10-05T13:49:57.936Z,17.79
2022-10-05T13:52:30.797Z,17.80
2022-10-05T13:55:28.012Z,17.81
2022-10-05T13:58:27.613Z,17.82
2022-10-05T14:00:58.831Z,17.84
2022-10-05T14:03:28.528Z,16.53
2022-10-05T14:06:01.448Z,17.90
2022-10-05T14:08:36.261Z,17.72
2022-10-05T14:11:32.723Z,17.68
2022-10-05T14:14:06.270Z,17.71
2022-10-05T14:16:33.720Z,17.79
2022-10-05T14:19:18.617Z,17.97
2022-10-05T14:21:54.241Z,17.98
2022-10-05T14:24:43.539Z,17.98
2022-10-05T14:27:22.682Z,17.89
2022-10-05T14:29:57.120Z,17.91
2022-10-05T14:32:25.373Z,17.84
2022-10-05T14:35:18.011Z,18.04
2022-10-05T14:37:53.797Z,18.04
2022-10-05T14:40:32.254Z,17.75
2022-10-05T14:43:02.124Z,17.73
2022-10-05T14:45:30.178Z,18.05
2022-10-05T14:48:00.271Z,18.05
2022-10-05T14:50:31.598Z,18.01
2022-10-05T14:53:00.167Z,17.40
2022-10-05T14:55:52.124Z,17.97
2022-10-05T14:58:45.700Z,17.91
2022-10-05T15:01:35.313Z,17.91
2022-10-05T15:04:29.452Z,17.98
2022-10-05T15:07:25.168Z,17.96
2022-10-05T15:10:27.075Z,17.95
2022-10-05T15:12:55.249Z,17.91
2022-10-05T15:15:25.476Z,17.91
2022-10-05T15:17:58.295Z,16.77
2022-10-05T15:20:58.729Z,17.75
2022-10-05T15:23:47.429Z,17.91
2022-10-05T15:26:23.143Z,17.91
2022-10-05T15:28:59.960Z,17.80
2022-10-05T15:31:54.587Z,17.92
2022-10-05T15:34:44.701Z,16.50
2022-10-05T15:37:16.977Z,17.54
2022-10-05T15:39:58.214Z,17.55
2022-10-05T15:42:38.877Z,17.79
2022-10-05T15:45:19.192Z,17.91
2022-10-05T15:48:10.375Z,17.90
2022-10-05T15:51:15.389Z,17.88
2022-10-05T15:54:24.133Z,17.66
2022-10-05T15:56:59.793Z,17.65
2022-10-05T15:59:47.852Z,17.61
2022-10-05T16:02:17.225Z,17.84
2022-10-05T16:05:09.396Z,17.68
2022-10-05T16:08:14.969Z,17.73
2022-10-05T16:10:42.071Z,17.72
2022-10-05T16:13:20.042Z,17.34
2022-10-05T16:15:54.056Z,17.81
2022-10-05T16:18:47.048Z,17.80
2022-10-05T16:21:47.448Z,17.78
2022-10-05T16:24:52.131Z,17.77
2022-10-05T16:27:25.461Z,17.76
2022-10-05T16:30:02.551Z,17.76
2022-10-05T16:32:37.465Z,17.72
2022-10-05T16:35:27.489Z,17.63
2022-10-05T16:38:33.540Z,17.73
2022-10-05T16:41:05.276Z,17.51
2022-10-05T16:43:58.919Z,17.54
2022-10-05T16:46:34.698Z,17.73
2022-10-05T16:49:20.591Z,17.74
2022-10-05T16:51:56.444Z,17.54
2022-10-05T16:54:48.964Z,17.73
2022-10-05T16:57:18.777Z,17.71
2022-10-05T16:59:48.441Z,17.71
2022-10-05T17:02:35.346Z,17.39
2022-10-05T17:05:02.142Z,17.70
2022-10-05T17:07:39.423Z,17.70
2022-10-05T17:10:09.215Z,17.70
2022-10-05T17:12:59.939Z,17.60
2022-10-05T17:16:04.824Z,17.67
2022-10-05T17:19:10.160Z,17.67
2022-10-05T17:22:00.462Z,17.49
2022-10-05T17:24:50.961Z,17.21
2022-10-05T17:27:28.693Z,17.15
2022-10-05T17:30:16.064Z,17.61
2022-10-05T17:33:00.686Z,17.53
2022-10-05T17:35:41.902Z,17.13
2022-10-05T17:38:23.236Z,17.04
2022-10-05T17:41:31.127Z,16.76
2022-10-05T17:44:06.855Z,17.55
2022-10-05T17:46:38.643Z,17.29
2022-10-05T17:49:22.444Z,17.55
2022-10-05T17:52:07.690Z,17.56
2022-10-05T17:55:05.172Z,17.54
2022-10-05T17:57:32.252Z,17.50
2022-10-05T18:00:20.830Z,17.32
2022-10-05T18:02:47.737Z,17.42
2022-10-05T18:05:16.179Z,17.53
2022-10-05T18:07:48.159Z,17.55
2022-10-05T18:10:29.065Z,17.49
2022-10-05T18:12:58.919Z,17.53
2022-10-05T18:15:25.639Z,17.55
2022-10-05T18:18:19.789Z,17.29
2022-10-05T18:21:14.531Z,17.55
2022-10-05T18:24:14.152Z,17.52
2022-10-05T18:27:01.956Z,16.34
2022-10-05T18:30:08.776Z,17.50
2022-10-05T18:33:12.683Z,17.48
2022-10-05T18:35:50.955Z,17.48
2022-10-05T18:38:27.007Z,17.49
2022-10-05T18:41:24.094Z,17.09
2022-10-05T18:44:18.772Z,17.48
2022-10-05T18:46:57.806Z,17.49
2022-10-05T18:49:31.320Z,16.06
2022-10-05T18:52:18.473Z,17.50
2022-10-05T18:55:03.503Z,17.42
2022-10-05T18:58:08.708Z,17.52
2022-10-05T19:00:56.951Z,17.52
2022-10-05T19:03:47.316Z,17.53
2022-10-05T19:06:24.373Z,17.36
2022-10-05T19:09:07.520Z,17.31
2022-10-05T19:11:49.808Z,16.38
2022-10-05T19:14:33.170Z,17.59
2022-10-05T19:17:07.172Z,17.61
2022-10-05T19:19:49.109Z,17.53
2022-10-05T19:22:26.407Z,17.63
2022-10-05T19:25:24.262Z,17.63
2022-10-05T19:28:03.074Z,17.60
2022-10-05T19:31:02.467Z,16.07
2022-10-05T19:33:45.759Z,17.43
2022-10-05T19:36:24.893Z,17.34
2022-10-05T19:39:11.385Z,17.09
2022-10-05T19:41:51.083Z,17.13
2022-10-05T19:44:38.475Z,16.87
2022-10-05T19:47:44.373Z,16.78
2022-10-05T19:50:23.384Z,16.60
2022-10-05T19:52:52.024Z,16.30
2022-10-05T19:55:22.422Z,16.40
2022-10-05T19:57:51.144Z,16.07
2022-10-05T20:00:25.538Z,16.20
2022-10-05T20:03:09.117Z,15.96
2022-10-05T20:05:36.042Z,15.72
2022-10-05T20:08:04.716Z,14.49
2022-10-05T20:10:31.782Z,15.84
2022-10-05T20:12:59.454Z,15.38
2022-10-05T20:15:53.221Z,15.86
2022-10-05T20:18:54.661Z,15.94
2022-10-05T20:21:53.241Z,15.93
2022-10-05T20:24:25.723Z,15.73
2022-10-05T20:27:02.560Z,15.90
2022-10-05T20:29:30.627Z,15.87
2022-10-05T20:31:57.609Z,15.67
2022-10-05T20:34:24.502Z,15.65
2022-10-05T20:36:51.711Z,15.39
2022-10-05T20:39:19.037Z,15.73
2022-10-05T20:41:46.004Z,15.73
2022-10-05T20:44:13.060Z,15.46
2022-10-05T20:46:42.893Z,15.73
2022-10-05T20:49:11.568Z,15.65
2022-10-05T20:51:39.107Z,15.38
2022-10-05T20:54:06.709Z,15.45
2022-10-05T20:56:33.776Z,15.57
2022-10-05T20:59:00.667Z,15.55
2022-10-05T21:01:28.990Z,15.05
2022-10-05T21:03:56.019Z,15.39
2022-10-05T21:06:22.963Z,15.37
2022-10-05T21:08:51.486Z,15.48
2022-10-05T21:11:18.429Z,15.55
2022-10-05T21:13:45.472Z,15.29
2022-10-05T21:16:16.894Z,15.35
2022-10-05T21:18:46.782Z,15.38
2022-10-05T21:21:14.907Z,15.26
2022-10-05T21:23:41.787Z,15.48
2022-10-05T21:26:08.663Z,14.61
2022-10-05T21:28:35.649Z,15.31
2022-10-05T21:31:02.608Z,15.39
2022-10-05T21:33:29.931Z,15.18
2022-10-05T21:35:57.187Z,15.42
2022-10-05T21:38:24.367Z,15.27
2022-10-05T21:40:51.470Z,15.47
2022-10-05T21:43:18.336Z,15.18
2022-10-05T21:45:45.459Z,15.07
2022-10-05T21:48:15.612Z,15.37
2022-10-05T21:50:42.476Z,15.19
2022-10-05T21:53:10.113Z,15.14
2022-10-05T21:55:37.823Z,15.23
2022-10-05T21:58:04.789Z,14.57
2022-10-05T22:00:31.748Z,15.18
2022-10-05T22:02:58.647Z,14.71
2022-10-05T22:05:25.577Z,15.13
2022-10-05T22:07:52.460Z,15.04
2022-10-05T22:10:19.346Z,15.18
2022-10-05T22:12:47.354Z,15.15
2022-10-05T22:15:14.762Z,14.99
2022-10-05T22:17:42.239Z,15.13
2022-10-05T22:20:15.578Z,14.31
2022-10-05T22:22:42.499Z,14.89
2022-10-05T22:25:09.432Z,14.83
2022-10-05T22:27:36.323Z,14.93
2022-10-05T22:30:03.824Z,14.97
2022-10-05T22:32:30.710Z,15.09
2022-10-05T22:34:57.651Z,15.07
2022-10-05T22:37:24.610Z,14.83
2022-10-05T22:39:51.502Z,15.00
2022-10-05T22:42:18.372Z,15.00
2022-10-05T22:44:45.294Z,15.03
2022-10-05T22:47:12.205Z,15.09
2022-10-05T22:49:39.130Z,15.03
2022-10-05T22:52:06.000Z,14.97
2022-10-05T22:54:37.099Z,14.94
2022-10-05T22:57:04.356Z,14.62
2022-10-05T22:59:31.275Z,14.79
2022-10-05T23:01:58.345Z,14.88
2022-10-05T23:04:25.438Z,14.78
2022-10-05T23:06:52.357Z,14.83
2022-10-05T23:09:19.228Z,14.94
2022-10-05T23:11:51.918Z,14.81
2022-10-05T23:14:19.468Z,14.83
2022-10-05T23:16:46.890Z,14.73
2022-10-05T23:19:14.015Z,14.90
2022-10-05T23:21:40.889Z,14.60
2022-10-05T23:24:07.799Z,14.82
2022-10-05T23:26:34.661Z,13.89
2022-10-05T23:29:01.552Z,14.74
2022-10-05T23:31:30.443Z,13.61
2022-10-05T23:33:57.377Z,13.86
2022-10-05T23:36:32.316Z,14.68
2022-10-05T23:39:00.043Z,14.77
2022-10-05T23:41:26.934Z,14.42
2022-10-05T23:43:55.286Z,14.45
2022-10-05T23:46:22.451Z,14.72
2022-10-05T23:48:50.448Z,14.53
2022-10-05T23:51:17.377Z,14.60
2022-10-05T23:53:44.323Z,14.62
2022-10-05T23:56:11.235Z,9.92
2022-10-05T23:58:38.184Z,14.59
